sensor_id;sensor_type;location;lat;lon;timestamp;temperature;humidity
31809;DHT22;18379;48.208;-1.518;2023-03-23T00:01:55;12.20;99.90
31809;DHT22;18379;48.208;-1.518;2023-03-23T00:06:55;12.20;99.90
31809;DHT22;18379;48.208;-1.518;2023-03-23T00:11:56;12.30;99.90
31809;DHT22;18379;48.208;-1.518;2023-03-23T00:17:05;12.30;99.90
31809;DHT22;18379;48.208;-1.518;2023-03-23T00:22:06;12.30;99.90
31809;DHT22;18379;48.208;-1.518;2023-03-23T00:27:07;12.20;99.90
31809;DHT22;18379;48.208;-1.518;2023-03-23T00:32:09;12.30;99.90
31809;DHT22;18379;48.208;-1.518;2023-03-23T00:37:13;12.30;99.90
31809;DHT22;18379;48.208;-1.518;2023-03-23T00:42:17;12.30;99.90
31809;DHT22;18379;48.208;-1.518;2023-03-23T00:47:18;12.40;99.90
31809;DHT22;18379;48.208;-1.518;2023-03-23T00:52:19;12.30;99.90
31809;DHT22;18379;48.208;-1.518;2023-03-23T00:57:20;12.30;99.90
31809;DHT22;18379;48.208;-1.518;2023-03-23T01:02:24;12.30;99.90
31809;DHT22;18379;48.208;-1.518;2023-03-23T01:07:25;12.20;99.90
31809;DHT22;18379;48.208;-1.518;2023-03-23T01:12:28;12.20;99.90
31809;DHT22;18379;48.208;-1.518;2023-03-23T01:17:29;12.20;99.90
31809;DHT22;18379;48.208;-1.518;2023-03-23T01:22:31;12.30;99.90
31809;DHT22;18379;48.208;-1.518;2023-03-23T01:27:32;12.30;99.90
31809;DHT22;18379;48.208;-1.518;2023-03-23T01:32:33;12.30;99.90
31809;DHT22;18379;48.208;-1.518;2023-03-23T01:37:34;12.30;99.90
31809;DHT22;18379;48.208;-1.518;2023-03-23T01:42:37;12.30;99.90
31809;DHT22;18379;48.208;-1.518;2023-03-23T01:47:38;12.20;99.90
31809;DHT22;18379;48.208;-1.518;2023-03-23T01:52:40;12.30;99.90
31809;DHT22;18379;48.208;-1.518;2023-03-23T01:57:41;12.20;99.90
31809;DHT22;18379;48.208;-1.518;2023-03-23T02:02:44;12.10;99.90
31809;DHT22;18379;48.208;-1.518;2023-03-23T02:07:47;12.10;99.90
31809;DHT22;18379;48.208;-1.518;2023-03-23T02:12:49;12.10;99.90
31809;DHT22;18379;48.208;-1.518;2023-03-23T02:33:40;12.10;99.90
31809;DHT22;18379;48.208;-1.518;2023-03-23T02:38:53;12.00;99.90
31809;DHT22;18379;48.208;-1.518;2023-03-23T02:43:57;11.90;99.90
31809;DHT22;18379;48.208;-1.518;2023-03-23T02:48:58;11.80;99.90
31809;DHT22;18379;48.208;-1.518;2023-03-23T02:54:01;11.90;99.90
31809;DHT22;18379;48.208;-1.518;2023-03-23T02:59:03;11.80;99.90
31809;DHT22;18379;48.208;-1.518;2023-03-23T03:04:16;11.80;99.90
31809;DHT22;18379;48.208;-1.518;2023-03-23T03:09:54;11.90;99.90
31809;DHT22;18379;48.208;-1.518;2023-03-23T03:15:06;11.80;99.90
31809;DHT22;18379;48.208;-1.518;2023-03-23T03:20:10;11.80;99.90
31809;DHT22;18379;48.208;-1.518;2023-03-23T03:25:15;11.70;99.90
31809;DHT22;18379;48.208;-1.518;2023-03-23T03:30:20;11.80;99.90
31809;DHT22;18379;48.208;-1.518;2023-03-23T03:35:23;11.70;99.90
31809;DHT22;18379;48.208;-1.518;2023-03-23T03:40:24;11.70;99.90
31809;DHT22;18379;48.208;-1.518;2023-03-23T03:45:25;11.60;99.90
31809;DHT22;18379;48.208;-1.518;2023-03-23T03:50:26;11.60;99.90
31809;DHT22;18379;48.208;-1.518;2023-03-23T03:55:27;11.60;99.90
31809;DHT22;18379;48.208;-1.518;2023-03-23T04:00:28;11.70;99.90
31809;DHT22;18379;48.208;-1.518;2023-03-23T04:05:29;11.80;99.90
31809;DHT22;18379;48.208;-1.518;2023-03-23T04:10:31;11.80;99.90
31809;DHT22;18379;48.208;-1.518;2023-03-23T04:15:31;11.70;99.90
31809;DHT22;18379;48.208;-1.518;2023-03-23T04:20:32;11.80;99.90
31809;DHT22;18379;48.208;-1.518;2023-03-23T04:25:35;11.80;99.90
31809;DHT22;18379;48.208;-1.518;2023-03-23T04:30:36;11.80;99.90
31809;DHT22;18379;48.208;-1.518;2023-03-23T04:35:37;11.90;99.90
31809;DHT22;18379;48.208;-1.518;2023-03-23T04:40:40;12.00;99.90
31809;DHT22;18379;48.208;-1.518;2023-03-23T04:45:42;12.00;99.90
31809;DHT22;18379;48.208;-1.518;2023-03-23T04:50:46;12.00;99.90
31809;DHT22;18379;48.208;-1.518;2023-03-23T04:55:49;12.00;99.90
31809;DHT22;18379;48.208;-1.518;2023-03-23T05:00:50;12.10;99.90
31809;DHT22;18379;48.208;-1.518;2023-03-23T05:05:51;12.10;99.90
31809;DHT22;18379;48.208;-1.518;2023-03-23T05:10:59;12.10;99.90
31809;DHT22;18379;48.208;-1.518;2023-03-23T05:16:04;12.10;99.90
31809;DHT22;18379;48.208;-1.518;2023-03-23T05:21:05;12.10;99.90
31809;DHT22;18379;48.208;-1.518;2023-03-23T05:26:06;12.10;99.90
31809;DHT22;18379;48.208;-1.518;2023-03-23T05:31:07;12.10;99.90
31809;DHT22;18379;48.208;-1.518;2023-03-23T05:36:08;12.10;99.90
31809;DHT22;18379;48.208;-1.518;2023-03-23T05:41:11;12.10;99.90
31809;DHT22;18379;48.208;-1.518;2023-03-23T05:46:12;12.10;99.90
31809;DHT22;18379;48.208;-1.518;2023-03-23T05:51:13;12.10;99.90
31809;DHT22;18379;48.208;-1.518;2023-03-23T05:56:14;12.10;99.90
31809;DHT22;18379;48.208;-1.518;2023-03-23T06:01:17;12.10;99.90
31809;DHT22;18379;48.208;-1.518;2023-03-23T06:06:18;12.10;99.90
31809;DHT22;18379;48.208;-1.518;2023-03-23T06:11:20;12.20;99.90
31809;DHT22;18379;48.208;-1.518;2023-03-23T06:16:20;12.10;99.90
31809;DHT22;18379;48.208;-1.518;2023-03-23T06:21:22;12.10;99.90
31809;DHT22;18379;48.208;-1.518;2023-03-23T06:26:28;12.10;99.90
31809;DHT22;18379;48.208;-1.518;2023-03-23T06:31:33;12.10;99.90
31809;DHT22;18379;48.208;-1.518;2023-03-23T06:36:35;12.10;99.90
31809;DHT22;18379;48.208;-1.518;2023-03-23T06:41:36;12.10;99.90
31809;DHT22;18379;48.208;-1.518;2023-03-23T06:46:37;12.10;99.90
31809;DHT22;18379;48.208;-1.518;2023-03-23T06:51:38;12.10;99.90
31809;DHT22;18379;48.208;-1.518;2023-03-23T06:56:39;12.20;99.90
31809;DHT22;18379;48.208;-1.518;2023-03-23T07:01:40;12.30;99.90
31809;DHT22;18379;48.208;-1.518;2023-03-23T07:06:40;12.40;99.90
31809;DHT22;18379;48.208;-1.518;2023-03-23T07:11:41;12.40;99.90
31809;DHT22;18379;48.208;-1.518;2023-03-23T07:16:42;12.40;99.90
31809;DHT22;18379;48.208;-1.518;2023-03-23T07:21:43;12.50;99.90
31809;DHT22;18379;48.208;-1.518;2023-03-23T07:26:44;12.60;99.90
31809;DHT22;18379;48.208;-1.518;2023-03-23T07:31:48;12.60;99.90
31809;DHT22;18379;48.208;-1.518;2023-03-23T07:36:53;12.70;99.90
31809;DHT22;18379;48.208;-1.518;2023-03-23T07:41:55;12.70;99.90
31809;DHT22;18379;48.208;-1.518;2023-03-23T07:46:56;12.80;99.90
31809;DHT22;18379;48.208;-1.518;2023-03-23T07:51:57;12.90;99.90
31809;DHT22;18379;48.208;-1.518;2023-03-23T07:56:58;13.00;99.90
31809;DHT22;18379;48.208;-1.518;2023-03-23T08:01:59;13.10;99.90
31809;DHT22;18379;48.208;-1.518;2023-03-23T08:06:59;13.10;99.90
31809;DHT22;18379;48.208;-1.518;2023-03-23T08:12:00;13.20;99.90
31809;DHT22;18379;48.208;-1.518;2023-03-23T08:17:01;13.20;99.90
31809;DHT22;18379;48.208;-1.518;2023-03-23T08:22:03;13.20;99.90
31809;DHT22;18379;48.208;-1.518;2023-03-23T08:27:04;13.30;99.90
31809;DHT22;18379;48.208;-1.518;2023-03-23T08:32:07;13.30;99.90
31809;DHT22;18379;48.208;-1.518;2023-03-23T08:37:08;13.40;99.90
31809;DHT22;18379;48.208;-1.518;2023-03-23T08:42:10;13.40;99.90
31809;DHT22;18379;48.208;-1.518;2023-03-23T08:47:12;13.60;99.90
31809;DHT22;18379;48.208;-1.518;2023-03-23T08:52:13;13.80;99.90
31809;DHT22;18379;48.208;-1.518;2023-03-23T08:57:14;13.70;99.90
31809;DHT22;18379;48.208;-1.518;2023-03-23T09:02:15;13.50;99.90
31809;DHT22;18379;48.208;-1.518;2023-03-23T09:07:20;13.40;99.90
31809;DHT22;18379;48.208;-1.518;2023-03-23T09:12:20;13.50;99.90
31809;DHT22;18379;48.208;-1.518;2023-03-23T09:17:21;13.50;99.90
31809;DHT22;18379;48.208;-1.518;2023-03-23T09:22:22;13.50;99.90
31809;DHT22;18379;48.208;-1.518;2023-03-23T09:27:24;13.50;99.90
31809;DHT22;18379;48.208;-1.518;2023-03-23T09:32:26;13.40;99.90
31809;DHT22;18379;48.208;-1.518;2023-03-23T09:37:28;13.50;99.90
31809;DHT22;18379;48.208;-1.518;2023-03-23T09:53:21;13.70;99.90
31809;DHT22;18379;48.208;-1.518;2023-03-23T10:03:40;13.80;99.90
31809;DHT22;18379;48.208;-1.518;2023-03-23T10:08:52;13.90;99.90
31809;DHT22;18379;48.208;-1.518;2023-03-23T10:24:26;14.10;99.90
31809;DHT22;18379;48.208;-1.518;2023-03-23T10:29:41;14.30;99.90
31809;DHT22;18379;48.208;-1.518;2023-03-23T10:34:55;14.50;99.90
31809;DHT22;18379;48.208;-1.518;2023-03-23T10:39:59;14.50;99.90
31809;DHT22;18379;48.208;-1.518;2023-03-23T10:45:12;14.50;99.90
31809;DHT22;18379;48.208;-1.518;2023-03-23T10:50:18;14.70;99.90
31809;DHT22;18379;48.208;-1.518;2023-03-23T10:55:24;14.70;99.90
31809;DHT22;18379;48.208;-1.518;2023-03-23T11:00:44;14.60;99.90
31809;DHT22;18379;48.208;-1.518;2023-03-23T11:05:51;14.30;99.90
31809;DHT22;18379;48.208;-1.518;2023-03-23T11:10:55;14.10;99.90
31809;DHT22;18379;48.208;-1.518;2023-03-23T11:15:57;14.20;99.90
31809;DHT22;18379;48.208;-1.518;2023-03-23T11:20:58;14.40;99.90
31809;DHT22;18379;48.208;-1.518;2023-03-23T11:26:15;14.40;99.90
31809;DHT22;18379;48.208;-1.518;2023-03-23T11:31:18;14.40;99.90
31809;DHT22;18379;48.208;-1.518;2023-03-23T11:36:34;14.20;99.90
31809;DHT22;18379;48.208;-1.518;2023-03-23T11:41:38;14.30;99.90
31809;DHT22;18379;48.208;-1.518;2023-03-23T11:57:20;14.10;99.90
31809;DHT22;18379;48.208;-1.518;2023-03-23T12:02:39;14.10;99.90
31809;DHT22;18379;48.208;-1.518;2023-03-23T12:08:21;14.20;99.90
31809;DHT22;18379;48.208;-1.518;2023-03-23T12:18:48;14.70;99.90
31809;DHT22;18379;48.208;-1.518;2023-03-23T12:29:47;14.80;99.90
31809;DHT22;18379;48.208;-1.518;2023-03-23T12:40:28;15.20;99.90
31809;DHT22;18379;48.208;-1.518;2023-03-23T12:45:45;15.30;99.90
31809;DHT22;18379;48.208;-1.518;2023-03-23T13:06:42;15.60;99.90
31809;DHT22;18379;48.208;-1.518;2023-03-23T13:11:43;15.70;99.90
31809;DHT22;18379;48.208;-1.518;2023-03-23T13:17:07;15.40;99.90
31809;DHT22;18379;48.208;-1.518;2023-03-23T13:27:56;15.60;99.90
31809;DHT22;18379;48.208;-1.518;2023-03-23T13:33:03;15.80;99.90
31809;DHT22;18379;48.208;-1.518;2023-03-23T13:43:30;15.60;99.90
31809;DHT22;18379;48.208;-1.518;2023-03-23T13:48:41;15.60;99.90
31809;DHT22;18379;48.208;-1.518;2023-03-23T13:53:47;15.30;99.90
31809;DHT22;18379;48.208;-1.518;2023-03-23T13:58:53;15.30;99.90
31809;DHT22;18379;48.208;-1.518;2023-03-23T14:04:30;15.00;99.90
31809;DHT22;18379;48.208;-1.518;2023-03-23T14:09:39;15.00;99.90
31809;DHT22;18379;48.208;-1.518;2023-03-23T14:14:41;14.80;99.90
31809;DHT22;18379;48.208;-1.518;2023-03-23T14:19:51;14.70;99.90
31809;DHT22;18379;48.208;-1.518;2023-03-23T14:25:00;14.60;99.90
31809;DHT22;18379;48.208;-1.518;2023-03-23T14:30:06;14.80;99.90
31809;DHT22;18379;48.208;-1.518;2023-03-23T14:40:19;14.70;99.90
31809;DHT22;18379;48.208;-1.518;2023-03-23T14:45:21;14.50;99.90
31809;DHT22;18379;48.208;-1.518;2023-03-23T14:50:36;14.30;99.90
31809;DHT22;18379;48.208;-1.518;2023-03-23T14:55:42;14.20;99.90
31809;DHT22;18379;48.208;-1.518;2023-03-23T15:01:06;14.10;99.90
31809;DHT22;18379;48.208;-1.518;2023-03-23T15:06:14;14.10;99.90
31809;DHT22;18379;48.208;-1.518;2023-03-23T15:16:21;13.80;99.90
31809;DHT22;18379;48.208;-1.518;2023-03-23T15:21:32;13.70;99.90
31809;DHT22;18379;48.208;-1.518;2023-03-23T15:26:42;13.60;99.90
31809;DHT22;18379;48.208;-1.518;2023-03-23T15:31:52;13.60;99.90
31809;DHT22;18379;48.208;-1.518;2023-03-23T15:37:03;13.50;99.90
31809;DHT22;18379;48.208;-1.518;2023-03-23T15:42:05;13.50;99.90
31809;DHT22;18379;48.208;-1.518;2023-03-23T15:47:18;13.50;99.90
31809;DHT22;18379;48.208;-1.518;2023-03-23T15:52:19;13.50;99.90
31809;DHT22;18379;48.208;-1.518;2023-03-23T15:57:20;13.50;99.90
31809;DHT22;18379;48.208;-1.518;2023-03-23T16:02:22;13.30;99.90
31809;DHT22;18379;48.208;-1.518;2023-03-23T16:07:24;13.20;99.90
31809;DHT22;18379;48.208;-1.518;2023-03-23T16:12:25;13.30;99.90
31809;DHT22;18379;48.208;-1.518;2023-03-23T16:17:26;13.20;99.90
31809;DHT22;18379;48.208;-1.518;2023-03-23T16:22:27;13.20;99.90
31809;DHT22;18379;48.208;-1.518;2023-03-23T16:27:28;13.10;99.90
31809;DHT22;18379;48.208;-1.518;2023-03-23T16:32:29;13.00;99.90
31809;DHT22;18379;48.208;-1.518;2023-03-23T16:37:30;13.00;99.90
31809;DHT22;18379;48.208;-1.518;2023-03-23T16:42:33;13.00;99.90
31809;DHT22;18379;48.208;-1.518;2023-03-23T16:47:34;13.00;99.90
31809;DHT22;18379;48.208;-1.518;2023-03-23T16:52:35;12.90;99.90
31809;DHT22;18379;48.208;-1.518;2023-03-23T16:57:37;13.00;99.90
31809;DHT22;18379;48.208;-1.518;2023-03-23T17:02:40;13.00;99.90
31809;DHT22;18379;48.208;-1.518;2023-03-23T17:07:41;13.00;99.90
31809;DHT22;18379;48.208;-1.518;2023-03-23T17:12:42;12.90;99.90
31809;DHT22;18379;48.208;-1.518;2023-03-23T17:17:44;13.00;99.90
31809;DHT22;18379;48.208;-1.518;2023-03-23T17:22:44;13.00;99.90
31809;DHT22;18379;48.208;-1.518;2023-03-23T17:27:45;13.00;99.90
31809;DHT22;18379;48.208;-1.518;2023-03-23T17:32:46;12.90;99.90
31809;DHT22;18379;48.208;-1.518;2023-03-23T17:37:48;12.80;99.90
31809;DHT22;18379;48.208;-1.518;2023-03-23T17:42:49;12.80;99.90
31809;DHT22;18379;48.208;-1.518;2023-03-23T17:47:50;12.90;99.90
31809;DHT22;18379;48.208;-1.518;2023-03-23T17:52:51;12.90;99.90
31809;DHT22;18379;48.208;-1.518;2023-03-23T17:57:53;12.90;99.90
31809;DHT22;18379;48.208;-1.518;2023-03-23T18:02:54;12.90;99.90
31809;DHT22;18379;48.208;-1.518;2023-03-23T18:07:55;12.80;99.90
31809;DHT22;18379;48.208;-1.518;2023-03-23T18:12:56;12.80;99.90
31809;DHT22;18379;48.208;-1.518;2023-03-23T18:17:57;12.80;99.90
31809;DHT22;18379;48.208;-1.518;2023-03-23T18:22:58;12.80;99.90
31809;DHT22;18379;48.208;-1.518;2023-03-23T18:27:59;12.80;99.90
31809;DHT22;18379;48.208;-1.518;2023-03-23T18:33:00;12.80;99.90
31809;DHT22;18379;48.208;-1.518;2023-03-23T18:38:01;12.80;99.90
31809;DHT22;18379;48.208;-1.518;2023-03-23T18:43:01;12.80;99.90
31809;DHT22;18379;48.208;-1.518;2023-03-23T18:48:03;12.80;99.90
31809;DHT22;18379;48.208;-1.518;2023-03-23T18:53:04;12.80;99.90
31809;DHT22;18379;48.208;-1.518;2023-03-23T18:58:05;12.70;99.90
31809;DHT22;18379;48.208;-1.518;2023-03-23T19:03:06;12.80;99.90
31809;DHT22;18379;48.208;-1.518;2023-03-23T19:08:09;12.70;99.90
31809;DHT22;18379;48.208;-1.518;2023-03-23T19:13:11;12.60;99.90
31809;DHT22;18379;48.208;-1.518;2023-03-23T19:18:12;12.60;99.90
31809;DHT22;18379;48.208;-1.518;2023-03-23T19:23:13;12.60;99.90
31809;DHT22;18379;48.208;-1.518;2023-03-23T19:28:14;12.60;99.90
31809;DHT22;18379;48.208;-1.518;2023-03-23T19:33:16;12.50;99.90
31809;DHT22;18379;48.208;-1.518;2023-03-23T19:38:18;12.50;99.90
31809;DHT22;18379;48.208;-1.518;2023-03-23T19:43:23;12.50;99.90
31809;DHT22;18379;48.208;-1.518;2023-03-23T19:48:24;12.50;99.90
31809;DHT22;18379;48.208;-1.518;2023-03-23T19:53:28;12.40;99.90
31809;DHT22;18379;48.208;-1.518;2023-03-23T19:58:29;12.40;99.90
31809;DHT22;18379;48.208;-1.518;2023-03-23T20:03:30;12.40;99.90
31809;DHT22;18379;48.208;-1.518;2023-03-23T20:08:33;12.40;99.90
31809;DHT22;18379;48.208;-1.518;2023-03-23T20:13:33;12.40;99.90
31809;DHT22;18379;48.208;-1.518;2023-03-23T20:18:35;12.40;99.90
31809;DHT22;18379;48.208;-1.518;2023-03-23T20:23:37;12.40;99.90
31809;DHT22;18379;48.208;-1.518;2023-03-23T20:28:39;12.40;99.90
31809;DHT22;18379;48.208;-1.518;2023-03-23T20:33:42;12.40;99.90
31809;DHT22;18379;48.208;-1.518;2023-03-23T20:38:44;12.40;99.90
31809;DHT22;18379;48.208;-1.518;2023-03-23T20:43:46;12.40;99.90
31809;DHT22;18379;48.208;-1.518;2023-03-23T20:48:48;12.40;99.90
31809;DHT22;18379;48.208;-1.518;2023-03-23T20:53:52;12.40;99.90
31809;DHT22;18379;48.208;-1.518;2023-03-23T20:58:52;12.50;99.90
31809;DHT22;18379;48.208;-1.518;2023-03-23T21:03:53;12.50;99.90
31809;DHT22;18379;48.208;-1.518;2023-03-23T21:08:56;12.50;99.90
31809;DHT22;18379;48.208;-1.518;2023-03-23T21:13:57;12.40;99.90
31809;DHT22;18379;48.208;-1.518;2023-03-23T21:18:58;12.40;99.90
31809;DHT22;18379;48.208;-1.518;2023-03-23T21:24:00;12.20;99.90
31809;DHT22;18379;48.208;-1.518;2023-03-23T21:29:01;11.90;99.90
31809;DHT22;18379;48.208;-1.518;2023-03-23T21:34:04;11.80;99.90
31809;DHT22;18379;48.208;-1.518;2023-03-23T21:39:05;11.60;99.90
31809;DHT22;18379;48.208;-1.518;2023-03-23T21:44:06;11.50;99.90
31809;DHT22;18379;48.208;-1.518;2023-03-23T21:49:10;11.40;99.90
31809;DHT22;18379;48.208;-1.518;2023-03-23T21:54:13;11.30;99.90
31809;DHT22;18379;48.208;-1.518;2023-03-23T21:59:14;11.10;99.90
31809;DHT22;18379;48.208;-1.518;2023-03-23T22:04:16;11.10;99.90
31809;DHT22;18379;48.208;-1.518;2023-03-23T22:09:17;10.90;99.90
31809;DHT22;18379;48.208;-1.518;2023-03-23T22:14:18;10.90;99.90
31809;DHT22;18379;48.208;-1.518;2023-03-23T22:19:20;10.80;99.90
31809;DHT22;18379;48.208;-1.518;2023-03-23T22:24:20;10.80;99.90
31809;DHT22;18379;48.208;-1.518;2023-03-23T22:29:21;10.70;99.90
31809;DHT22;18379;48.208;-1.518;2023-03-23T22:34:22;10.70;99.90
31809;DHT22;18379;48.208;-1.518;2023-03-23T22:39:23;10.70;99.90
31809;DHT22;18379;48.208;-1.518;2023-03-23T22:44:25;10.60;99.90
31809;DHT22;18379;48.208;-1.518;2023-03-23T22:49:26;10.60;99.90
31809;DHT22;18379;48.208;-1.518;2023-03-23T22:54:27;10.60;99.90
31809;DHT22;18379;48.208;-1.518;2023-03-23T22:59:28;10.60;99.90
31809;DHT22;18379;48.208;-1.518;2023-03-23T23:04:29;10.60;99.90
31809;DHT22;18379;48.208;-1.518;2023-03-23T23:09:30;10.60;99.90
31809;DHT22;18379;48.208;-1.518;2023-03-23T23:14:31;10.60;99.90
31809;DHT22;18379;48.208;-1.518;2023-03-23T23:19:32;10.60;99.90
31809;DHT22;18379;48.208;-1.518;2023-03-23T23:24:33;10.60;99.90
31809;DHT22;18379;48.208;-1.518;2023-03-23T23:29:34;10.50;99.90
31809;DHT22;18379;48.208;-1.518;2023-03-23T23:34:35;10.50;99.90
31809;DHT22;18379;48.208;-1.518;2023-03-23T23:39:36;10.40;99.90
31809;DHT22;18379;48.208;-1.518;2023-03-23T23:44:40;10.40;99.90
31809;DHT22;18379;48.208;-1.518;2023-03-23T23:49:42;10.40;99.90
31809;DHT22;18379;48.208;-1.518;2023-03-23T23:54:43;10.30;99.90
31809;DHT22;18379;48.208;-1.518;2023-03-23T23:59:46;10.30;99.90
